createdAt,value
2017-12-17T00:01:30.636Z,89.13
2017-12-17T00:03:58.109Z,89.09
2017-12-17T00:06:25.585Z,88.94
2017-12-17T00:08:53.077Z,89.10
2017-12-17T00:11:20.540Z,88.98
2017-12-17T00:13:48.021Z,88.84
2017-12-17T00:16:15.510Z,88.98
2017-12-17T00:18:42.980Z,89.34
2017-12-17T00:21:10.457Z,89.39
2017-12-17T00:23:37.941Z,88.53
2017-12-17T00:26:05.404Z,88.64
2017-12-17T00:28:32.867Z,88.25
2017-12-17T00:31:00.369Z,88.10
2017-12-17T00:33:27.832Z,88.38
2017-12-17T00:35:55.298Z,88.68
2017-12-17T00:38:22.788Z,88.03
2017-12-17T00:40:50.257Z,87.71
2017-12-17T00:43:17.733Z,87.86
2017-12-17T00:45:45.216Z,88.06
2017-12-17T00:48:12.692Z,87.16
2017-12-17T00:50:40.157Z,87.59
2017-12-17T00:53:07.651Z,88.04
2017-12-17T00:55:35.121Z,88.08
2017-12-17T00:58:02.585Z,87.95
2017-12-17T01:00:30.068Z,88.12
2017-12-17T01:02:57.532Z,88.34
2017-12-17T01:05:25.012Z,89.10
2017-12-17T01:07:52.476Z,90.58
2017-12-17T01:10:19.970Z,91.89
2017-12-17T01:12:47.437Z,92.82
2017-12-17T01:15:14.925Z,93.37
2017-12-17T01:17:42.399Z,93.54
2017-12-17T01:20:09.889Z,93.66
2017-12-17T01:22:37.353Z,93.87
2017-12-17T01:25:04.841Z,94.05
2017-12-17T01:27:32.320Z,93.84
2017-12-17T01:29:59.801Z,93.52
2017-12-17T01:32:27.264Z,93.38
2017-12-17T01:34:54.744Z,92.85
2017-12-17T01:37:22.208Z,92.77
2017-12-17T01:39:49.692Z,92.16
2017-12-17T01:42:17.166Z,91.91
2017-12-17T01:44:44.649Z,92.10
2017-12-17T01:47:12.113Z,91.51
2017-12-17T01:49:39.605Z,91.69
2017-12-17T01:52:07.069Z,91.63
2017-12-17T01:54:34.556Z,91.00
2017-12-17T01:57:02.029Z,90.59
2017-12-17T01:59:29.500Z,90.70
2017-12-17T02:01:56.985Z,89.82
2017-12-17T02:04:24.449Z,89.37
2017-12-17T02:06:51.940Z,88.99
2017-12-17T02:09:19.408Z,89.34
2017-12-17T02:11:46.893Z,89.12
2017-12-17T02:14:14.359Z,89.38
2017-12-17T02:16:41.854Z,89.33
2017-12-17T02:19:09.329Z,89.84
2017-12-17T02:21:36.820Z,89.48
2017-12-17T02:24:04.289Z,89.21
2017-12-17T02:26:31.769Z,89.50
2017-12-17T02:28:59.273Z,89.87
2017-12-17T02:31:26.773Z,89.64
2017-12-17T02:33:54.288Z,90.11
2017-12-17T02:36:21.777Z,90.39
2017-12-17T02:38:49.241Z,90.24
2017-12-17T02:41:16.724Z,90.39
2017-12-17T02:43:44.203Z,90.70
2017-12-17T02:46:11.694Z,90.42
2017-12-17T02:48:39.169Z,90.55
2017-12-17T02:51:06.656Z,90.69
2017-12-17T02:53:34.127Z,90.63
2017-12-17T02:56:01.618Z,90.37
2017-12-17T02:58:29.089Z,90.69
2017-12-17T03:00:56.569Z,90.56
2017-12-17T03:03:24.037Z,90.71
2017-12-17T03:05:51.520Z,90.63
2017-12-17T03:08:19.013Z,90.46
2017-12-17T03:10:46.497Z,90.24
2017-12-17T03:13:13.965Z,89.91
2017-12-17T03:15:41.453Z,89.73
2017-12-17T03:18:08.921Z,89.82
2017-12-17T03:20:36.405Z,89.93
2017-12-17T03:23:03.877Z,89.71
2017-12-17T03:25:31.364Z,89.22
2017-12-17T03:27:58.833Z,88.80
2017-12-17T03:30:26.318Z,89.22
2017-12-17T03:32:53.793Z,89.61
2017-12-17T03:35:21.272Z,89.66
2017-12-17T03:37:48.745Z,89.55
2017-12-17T03:40:16.228Z,90.04
2017-12-17T03:42:43.696Z,90.14
2017-12-17T03:45:11.181Z,90.17
2017-12-17T03:47:38.648Z,89.76
2017-12-17T03:50:06.137Z,90.04
2017-12-17T03:52:33.601Z,90.20
2017-12-17T03:55:01.089Z,90.19
2017-12-17T03:57:28.557Z,89.87
2017-12-17T03:59:56.022Z,89.96
2017-12-17T04:02:23.504Z,90.06
2017-12-17T04:04:50.981Z,89.89
2017-12-17T04:07:18.464Z,90.14
2017-12-17T04:09:45.943Z,90.44
2017-12-17T04:12:13.429Z,90.34
2017-12-17T04:14:40.892Z,90.55
2017-12-17T04:17:08.380Z,90.26
2017-12-17T04:19:35.849Z,90.25
2017-12-17T04:22:03.340Z,90.53
2017-12-17T04:24:30.805Z,90.24
2017-12-17T04:26:58.289Z,90.16
2017-12-17T04:29:25.753Z,90.19
2017-12-17T04:31:53.245Z,90.26
2017-12-17T04:34:20.712Z,90.00
2017-12-17T04:36:48.193Z,90.09
2017-12-17T04:39:15.669Z,90.30
2017-12-17T04:41:43.157Z,91.07
2017-12-17T04:44:10.629Z,91.45
2017-12-17T04:46:38.118Z,91.33
2017-12-17T04:49:05.583Z,91.46
2017-12-17T04:51:33.069Z,91.43
2017-12-17T04:54:00.540Z,91.33
2017-12-17T04:56:28.037Z,91.34
2017-12-17T04:58:55.509Z,91.19
2017-12-17T05:01:23.961Z,91.03
2017-12-17T05:03:51.432Z,91.04
2017-12-17T05:06:18.925Z,90.47
2017-12-17T05:08:46.396Z,90.69
2017-12-17T05:11:13.879Z,90.39
2017-12-17T05:13:41.353Z,89.87
2017-12-17T05:16:08.836Z,89.00
2017-12-17T05:18:36.312Z,89.16
2017-12-17T05:21:03.796Z,89.71
2017-12-17T05:23:31.256Z,89.22
2017-12-17T05:25:58.724Z,89.09
2017-12-17T05:28:26.217Z,88.76
2017-12-17T05:30:53.702Z,89.34
2017-12-17T05:33:21.184Z,89.09
2017-12-17T05:35:48.657Z,89.12
2017-12-17T05:38:16.136Z,89.02
2017-12-17T05:40:43.605Z,89.09
2017-12-17T05:43:11.095Z,88.83
2017-12-17T05:45:38.560Z,88.31
2017-12-17T05:48:06.054Z,88.27
2017-12-17T05:50:33.521Z,88.66
2017-12-17T05:53:01.004Z,88.25
2017-12-17T05:55:28.477Z,88.29
2017-12-17T05:57:55.966Z,88.48
2017-12-17T06:00:23.436Z,88.17
2017-12-17T06:02:50.920Z,88.38
2017-12-17T06:05:18.394Z,88.97
2017-12-17T06:07:45.876Z,88.67
2017-12-17T06:10:13.340Z,88.85
2017-12-17T06:12:40.852Z,89.16
2017-12-17T06:15:08.316Z,89.10
2017-12-17T06:17:35.801Z,89.27
2017-12-17T06:20:03.265Z,89.41
2017-12-17T06:22:30.745Z,88.68
2017-12-17T06:24:58.209Z,88.58
2017-12-17T06:27:25.697Z,88.89
2017-12-17T06:29:53.228Z,88.61
2017-12-17T06:32:20.715Z,88.66
2017-12-17T06:34:48.277Z,88.85
2017-12-17T06:37:15.768Z,89.03
2017-12-17T06:39:43.238Z,88.31
2017-12-17T06:42:10.716Z,88.50
2017-12-17T06:44:38.189Z,88.76
2017-12-17T06:47:05.684Z,88.76
2017-12-17T06:49:33.159Z,87.94
2017-12-17T06:52:00.646Z,88.21
2017-12-17T06:54:28.108Z,87.82
2017-12-17T06:56:55.573Z,87.92
2017-12-17T06:59:23.060Z,87.73
2017-12-17T07:01:50.532Z,88.13
2017-12-17T07:04:18.066Z,87.35
2017-12-17T07:06:45.509Z,87.01
2017-12-17T07:09:12.993Z,87.45
2017-12-17T07:11:40.545Z,87.93
2017-12-17T07:14:08.029Z,88.10
2017-12-17T07:16:35.492Z,87.82
2017-12-17T07:19:03.000Z,87.01
2017-12-17T07:21:30.465Z,87.39
2017-12-17T07:23:57.952Z,86.57
2017-12-17T07:26:25.416Z,86.38
2017-12-17T07:28:52.901Z,86.18
2017-12-17T07:31:20.369Z,86.20
2017-12-17T07:33:47.852Z,84.50
2017-12-17T07:36:15.317Z,85.18
2017-12-17T07:38:42.881Z,85.46
2017-12-17T07:41:10.349Z,85.92
2017-12-17T07:43:37.833Z,85.58
2017-12-17T07:46:05.305Z,85.02
2017-12-17T07:48:32.792Z,85.21
2017-12-17T07:51:00.257Z,84.50
2017-12-17T07:53:27.741Z,85.23
2017-12-17T07:55:55.205Z,84.74
2017-12-17T07:58:22.689Z,85.01
2017-12-17T08:00:50.165Z,85.51
2017-12-17T08:03:17.659Z,85.97
2017-12-17T08:05:45.129Z,86.03
2017-12-17T08:08:12.614Z,85.58
2017-12-17T08:10:40.076Z,85.47
2017-12-17T08:13:07.560Z,85.08
2017-12-17T08:15:35.028Z,85.02
2017-12-17T08:18:02.508Z,84.95
2017-12-17T08:20:29.968Z,83.94
2017-12-17T08:22:57.451Z,84.44
2017-12-17T08:25:24.928Z,84.15
2017-12-17T08:27:52.398Z,84.10
2017-12-17T08:30:19.876Z,83.51
2017-12-17T08:32:47.344Z,83.75
2017-12-17T08:35:14.825Z,84.22
2017-12-17T08:37:42.301Z,83.73
2017-12-17T08:40:09.780Z,83.92
2017-12-17T08:42:37.244Z,83.33
2017-12-17T08:45:04.724Z,83.10
2017-12-17T08:47:32.200Z,83.65
2017-12-17T08:49:59.677Z,82.93
2017-12-17T08:52:27.140Z,81.96
2017-12-17T08:54:54.626Z,81.72
2017-12-17T08:57:22.158Z,81.54
2017-12-17T08:59:49.613Z,80.73
2017-12-17T09:02:17.075Z,81.89
2017-12-17T09:04:44.556Z,80.60
2017-12-17T09:07:12.016Z,79.78
2017-12-17T09:09:39.496Z,80.41
2017-12-17T09:12:07.020Z,81.08
2017-12-17T09:14:34.481Z,81.15
2017-12-17T09:17:01.941Z,80.21
2017-12-17T09:19:29.432Z,80.68
2017-12-17T09:21:56.902Z,79.96
2017-12-17T09:24:24.384Z,78.57
2017-12-17T09:26:51.844Z,80.00
2017-12-17T09:29:19.326Z,79.59
2017-12-17T09:31:46.788Z,79.11
2017-12-17T09:34:14.273Z,79.15
2017-12-17T09:36:41.748Z,79.20
2017-12-17T09:39:09.228Z,78.63
2017-12-17T09:41:36.690Z,78.62
2017-12-17T09:44:04.169Z,77.88
2017-12-17T09:46:31.637Z,76.39
2017-12-17T09:48:59.156Z,77.70
2017-12-17T09:51:26.625Z,77.67
2017-12-17T09:53:54.088Z,78.07
2017-12-17T09:56:21.564Z,78.72
2017-12-17T09:58:49.029Z,77.50
2017-12-17T10:01:16.513Z,77.75
2017-12-17T10:03:43.977Z,77.87
2017-12-17T10:06:11.461Z,78.74
2017-12-17T10:08:38.929Z,78.15
2017-12-17T10:11:06.408Z,78.81
2017-12-17T10:13:33.876Z,79.33
2017-12-17T10:16:01.357Z,80.08
2017-12-17T10:18:28.821Z,80.40
2017-12-17T10:20:56.300Z,80.81
2017-12-17T10:23:23.760Z,80.34
2017-12-17T10:25:51.241Z,79.50
2017-12-17T10:28:18.704Z,79.29
2017-12-17T10:30:46.180Z,79.50
2017-12-17T10:33:13.645Z,80.02
2017-12-17T10:35:41.138Z,80.58
2017-12-17T10:38:08.602Z,81.70
2017-12-17T10:40:36.086Z,80.79
2017-12-17T10:43:03.548Z,81.12
2017-12-17T10:45:31.024Z,80.84
2017-12-17T10:47:58.493Z,80.83
2017-12-17T10:50:25.984Z,82.12
2017-12-17T10:52:53.453Z,83.20
2017-12-17T10:55:20.937Z,85.08
2017-12-17T10:57:48.397Z,85.44
2017-12-17T11:00:16.107Z,85.63
2017-12-17T11:02:43.576Z,87.98
2017-12-17T11:05:11.052Z,87.54
2017-12-17T11:07:38.517Z,87.32
2017-12-17T11:10:05.997Z,87.51
2017-12-17T11:12:33.465Z,86.24
2017-12-17T11:15:00.958Z,86.43
2017-12-17T11:17:28.428Z,86.31
2017-12-17T11:19:55.888Z,86.46
2017-12-17T11:22:23.369Z,86.83
2017-12-17T11:24:50.837Z,85.46
2017-12-17T11:27:18.323Z,84.89
2017-12-17T11:29:45.788Z,84.85
2017-12-17T11:32:13.272Z,83.09
2017-12-17T11:34:40.737Z,83.51
2017-12-17T11:37:08.228Z,84.88
2017-12-17T11:39:35.689Z,86.59
2017-12-17T11:42:03.177Z,86.40
2017-12-17T11:44:30.641Z,86.38
2017-12-17T11:46:58.129Z,87.26
2017-12-17T11:49:25.640Z,85.90
2017-12-17T11:51:53.226Z,85.86
2017-12-17T11:54:20.691Z,84.55
2017-12-17T11:56:48.168Z,82.93
2017-12-17T11:59:15.633Z,81.90
2017-12-17T12:01:43.113Z,81.21
2017-12-17T12:04:10.573Z,80.95
2017-12-17T12:06:38.053Z,80.23
2017-12-17T12:09:05.520Z,80.33
2017-12-17T12:11:33.000Z,80.44
2017-12-17T12:14:00.465Z,79.75
2017-12-17T12:16:27.947Z,79.89
2017-12-17T12:18:55.413Z,79.47
2017-12-17T12:21:22.895Z,78.97
2017-12-17T12:23:50.361Z,79.18
2017-12-17T12:26:17.840Z,78.12
2017-12-17T12:28:45.357Z,77.80
2017-12-17T12:31:12.844Z,77.82
2017-12-17T12:33:40.321Z,77.96
2017-12-17T12:36:07.805Z,78.14
2017-12-17T12:38:35.306Z,78.09
2017-12-17T12:41:02.817Z,78.48
2017-12-17T12:43:30.282Z,77.53
2017-12-17T12:45:57.757Z,77.89
2017-12-17T12:48:25.220Z,78.15
2017-12-17T12:50:52.701Z,78.23
2017-12-17T12:53:20.165Z,79.07
2017-12-17T12:55:47.645Z,79.58
2017-12-17T12:58:15.105Z,79.66
2017-12-17T13:00:42.576Z,79.53
2017-12-17T13:03:10.057Z,79.83
2017-12-17T13:05:37.521Z,80.30
2017-12-17T13:08:05.000Z,80.30
2017-12-17T13:10:32.461Z,79.58
2017-12-17T13:12:59.948Z,80.65
2017-12-17T13:15:27.421Z,80.75
2017-12-17T13:17:54.896Z,79.80
2017-12-17T13:20:22.356Z,80.17
2017-12-17T13:22:49.840Z,80.93
2017-12-17T13:25:17.300Z,80.42
2017-12-17T13:27:44.860Z,79.51
2017-12-17T13:30:12.367Z,80.28
2017-12-17T13:32:40.028Z,80.10
2017-12-17T13:35:07.501Z,79.86
2017-12-17T13:37:35.052Z,80.21
2017-12-17T13:40:02.550Z,79.90
2017-12-17T13:42:30.126Z,79.68
2017-12-17T13:44:57.668Z,79.35
2017-12-17T13:47:25.191Z,79.23
2017-12-17T13:49:52.661Z,80.02
2017-12-17T13:52:20.171Z,80.08
2017-12-17T13:54:47.632Z,80.37
2017-12-17T13:57:15.113Z,80.28
2017-12-17T13:59:42.576Z,79.75
2017-12-17T14:02:10.068Z,80.73
2017-12-17T14:04:37.529Z,80.91
2017-12-17T14:07:05.025Z,81.04
2017-12-17T14:09:32.543Z,80.37
2017-12-17T14:12:00.033Z,80.55
2017-12-17T14:14:27.505Z,81.77
2017-12-17T14:16:55.048Z,81.22
2017-12-17T14:19:22.477Z,81.24
2017-12-17T14:21:49.956Z,80.38
2017-12-17T14:24:17.429Z,81.12
2017-12-17T14:26:44.916Z,81.67
2017-12-17T14:29:12.384Z,81.78
2017-12-17T14:31:39.864Z,81.39
2017-12-17T14:34:07.328Z,80.18
2017-12-17T14:36:34.816Z,80.29
2017-12-17T14:39:05.920Z,81.12
2017-12-17T14:41:36.188Z,80.74
2017-12-17T14:44:03.653Z,79.22
2017-12-17T14:46:31.136Z,80.48
2017-12-17T14:48:58.604Z,79.72
2017-12-17T14:51:26.107Z,79.89
2017-12-17T14:53:53.581Z,79.81
2017-12-17T14:56:21.064Z,80.10
2017-12-17T14:58:48.533Z,79.47
2017-12-17T15:01:16.008Z,79.67
2017-12-17T15:03:43.496Z,79.78
2017-12-17T15:06:10.969Z,79.85
2017-12-17T15:08:38.452Z,79.79
2017-12-17T15:11:05.930Z,79.99
2017-12-17T15:13:33.416Z,80.30
2017-12-17T15:16:00.881Z,80.48
2017-12-17T15:18:28.369Z,80.21
2017-12-17T15:20:55.835Z,79.93
2017-12-17T15:23:23.318Z,80.31
2017-12-17T15:25:50.789Z,80.28
2017-12-17T15:28:18.273Z,80.47
2017-12-17T15:30:45.745Z,79.97
2017-12-17T15:33:13.224Z,80.37
2017-12-17T15:35:40.688Z,79.61
2017-12-17T15:38:08.172Z,80.54
2017-12-17T15:40:35.636Z,80.45
2017-12-17T15:43:03.117Z,80.22
2017-12-17T15:45:30.580Z,80.25
2017-12-17T15:47:58.069Z,80.42
2017-12-17T15:50:25.534Z,80.74
2017-12-17T15:52:53.013Z,81.39
2017-12-17T15:55:20.481Z,81.04
2017-12-17T15:57:47.960Z,80.72
2017-12-17T16:00:15.532Z,80.69
2017-12-17T16:02:43.012Z,81.20
2017-12-17T16:05:10.478Z,80.61
2017-12-17T16:07:37.957Z,81.80
2017-12-17T16:10:05.421Z,81.73
2017-12-17T16:12:32.901Z,82.91
2017-12-17T16:15:00.366Z,82.66
2017-12-17T16:17:27.849Z,83.66
2017-12-17T16:19:55.881Z,83.71
2017-12-17T16:22:23.376Z,84.22
2017-12-17T16:24:50.841Z,84.35
2017-12-17T16:27:18.325Z,84.69
2017-12-17T16:29:45.789Z,85.00
2017-12-17T16:32:13.268Z,83.76
2017-12-17T16:34:40.737Z,84.29
2017-12-17T16:37:08.221Z,84.40
2017-12-17T16:39:35.693Z,84.43
2017-12-17T16:42:03.221Z,84.75
2017-12-17T16:44:30.701Z,84.25
2017-12-17T16:46:58.192Z,84.90
2017-12-17T16:49:25.656Z,84.86
2017-12-17T16:51:53.140Z,84.80
2017-12-17T16:54:20.673Z,84.49
2017-12-17T16:56:48.138Z,83.99
2017-12-17T16:59:15.624Z,83.98
2017-12-17T17:01:43.109Z,83.82
2017-12-17T17:04:10.605Z,84.21
2017-12-17T17:06:38.924Z,84.26
2017-12-17T17:09:06.417Z,83.79
2017-12-17T17:11:33.880Z,84.80
2017-12-17T17:14:01.366Z,84.06
2017-12-17T17:16:28.833Z,84.33
2017-12-17T17:18:56.317Z,84.05
2017-12-17T17:21:23.780Z,84.31
2017-12-17T17:23:51.285Z,84.26
2017-12-17T17:26:18.761Z,83.88
2017-12-17T17:28:46.241Z,84.13
2017-12-17T17:31:13.732Z,83.47
2017-12-17T17:33:41.280Z,83.10
2017-12-17T17:36:08.818Z,82.97
2017-12-17T17:38:36.300Z,83.29
2017-12-17T17:41:03.764Z,82.50
2017-12-17T17:43:31.244Z,81.48
2017-12-17T17:45:58.716Z,81.05
2017-12-17T17:48:26.199Z,81.85
2017-12-17T17:50:53.833Z,82.19
2017-12-17T17:53:21.322Z,82.36
2017-12-17T17:55:48.793Z,81.86
2017-12-17T17:58:16.315Z,82.04
2017-12-17T18:00:43.798Z,82.02
2017-12-17T18:03:11.284Z,81.81
2017-12-17T18:05:38.749Z,82.49
2017-12-17T18:08:06.237Z,82.03
2017-12-17T18:10:33.700Z,81.99
2017-12-17T18:13:01.181Z,81.49
2017-12-17T18:15:28.644Z,81.31
2017-12-17T18:17:56.129Z,80.91
2017-12-17T18:20:23.593Z,80.99
2017-12-17T18:22:51.057Z,80.99
2017-12-17T18:25:18.545Z,80.91
2017-12-17T18:27:46.012Z,80.22
2017-12-17T18:30:13.500Z,80.69
2017-12-17T18:32:40.965Z,80.87
2017-12-17T18:35:08.506Z,80.63
2017-12-17T18:37:35.977Z,80.47
2017-12-17T18:40:03.463Z,80.64
2017-12-17T18:42:30.925Z,80.82
2017-12-17T18:44:58.412Z,81.15
2017-12-17T18:47:25.876Z,80.70
2017-12-17T18:49:53.364Z,80.45
2017-12-17T18:52:20.827Z,80.65
2017-12-17T18:54:48.317Z,80.84
2017-12-17T18:57:15.780Z,80.51
2017-12-17T18:59:43.268Z,80.51
2017-12-17T19:02:10.732Z,79.85
2017-12-17T19:04:38.257Z,80.33
2017-12-17T19:07:05.731Z,80.28
2017-12-17T19:09:33.316Z,80.43
2017-12-17T19:12:00.780Z,80.45
2017-12-17T19:14:28.265Z,80.62
2017-12-17T19:16:55.728Z,80.61
2017-12-17T19:19:23.215Z,79.98
2017-12-17T19:21:50.807Z,79.79
2017-12-17T19:24:18.296Z,79.43
2017-12-17T19:26:45.824Z,79.69
2017-12-17T19:29:13.348Z,79.33
2017-12-17T19:31:40.840Z,80.49
2017-12-17T19:34:08.324Z,80.34
2017-12-17T19:36:35.788Z,80.07
2017-12-17T19:39:03.269Z,79.84
2017-12-17T19:41:30.732Z,79.58
2017-12-17T19:43:58.241Z,79.30
2017-12-17T19:46:25.713Z,79.66
2017-12-17T19:48:53.193Z,79.49
2017-12-17T19:51:20.677Z,79.67
2017-12-17T19:53:48.145Z,79.57
2017-12-17T19:56:15.761Z,79.52
2017-12-17T19:58:43.235Z,79.93
2017-12-17T20:01:10.724Z,79.37
2017-12-17T20:03:38.196Z,79.38
2017-12-17T20:06:05.693Z,79.11
2017-12-17T20:08:33.166Z,79.34
2017-12-17T20:11:00.653Z,79.71
2017-12-17T20:13:28.128Z,79.30
2017-12-17T20:15:55.608Z,79.17
2017-12-17T20:18:23.076Z,79.33
2017-12-17T20:20:50.565Z,79.76
2017-12-17T20:23:18.033Z,79.56
2017-12-17T20:25:45.531Z,79.36
2017-12-17T20:28:13.009Z,79.42
2017-12-17T20:30:40.493Z,79.92
2017-12-17T20:33:07.969Z,79.58
2017-12-17T20:35:35.480Z,79.05
2017-12-17T20:38:02.946Z,79.63
2017-12-17T20:40:30.425Z,79.43
2017-12-17T20:42:57.926Z,79.29
2017-12-17T20:45:25.393Z,80.02
2017-12-17T20:47:52.880Z,80.73
2017-12-17T20:50:20.358Z,81.34
2017-12-17T20:52:47.864Z,80.67
2017-12-17T20:55:15.335Z,80.53
2017-12-17T20:57:42.831Z,82.22
2017-12-17T21:00:10.304Z,83.16
2017-12-17T21:02:37.785Z,84.50
2017-12-17T21:05:05.329Z,84.97
2017-12-17T21:07:32.816Z,85.46
2017-12-17T21:10:00.320Z,85.09
2017-12-17T21:12:27.795Z,85.26
2017-12-17T21:14:55.266Z,84.69
2017-12-17T21:17:22.748Z,83.79
2017-12-17T21:19:50.221Z,83.59
2017-12-17T21:22:17.704Z,83.34
2017-12-17T21:24:45.168Z,83.10
2017-12-17T21:27:12.652Z,83.18
2017-12-17T21:29:40.113Z,83.03
2017-12-17T21:32:07.611Z,83.35
2017-12-17T21:34:35.085Z,83.18
2017-12-17T21:37:02.596Z,83.56
2017-12-17T21:39:30.069Z,82.72
2017-12-17T21:41:57.554Z,82.44
2017-12-17T21:44:25.036Z,82.49
2017-12-17T21:46:52.517Z,82.70
2017-12-17T21:49:19.985Z,82.34
2017-12-17T21:51:47.476Z,81.94
2017-12-17T21:54:14.941Z,81.26
2017-12-17T21:56:42.428Z,80.37
2017-12-17T21:59:09.892Z,80.89
2017-12-17T22:01:37.376Z,81.04
2017-12-17T22:04:04.840Z,79.61
2017-12-17T22:06:32.390Z,79.89
2017-12-17T22:08:59.857Z,78.86
2017-12-17T22:11:28.031Z,78.86
2017-12-17T22:13:55.514Z,78.36
2017-12-17T22:16:23.024Z,79.42
2017-12-17T22:18:50.493Z,78.60
2017-12-17T22:21:17.976Z,78.43
2017-12-17T22:23:45.449Z,78.52
2017-12-17T22:26:12.948Z,78.58
2017-12-17T22:28:40.425Z,78.35
2017-12-17T22:31:07.917Z,78.36
2017-12-17T22:33:35.391Z,78.33
2017-12-17T22:36:02.856Z,78.50
2017-12-17T22:38:30.337Z,77.78
2017-12-17T22:40:57.809Z,77.84
2017-12-17T22:43:25.374Z,78.10
2017-12-17T22:45:52.840Z,77.82
2017-12-17T22:48:20.325Z,77.78
2017-12-17T22:50:47.792Z,77.54
2017-12-17T22:53:15.276Z,77.69
2017-12-17T22:55:42.744Z,78.09
2017-12-17T22:58:10.224Z,77.97
2017-12-17T23:00:37.692Z,78.16
2017-12-17T23:03:05.177Z,78.29
2017-12-17T23:05:32.646Z,78.33
2017-12-17T23:08:00.129Z,77.81
2017-12-17T23:10:27.596Z,77.96
2017-12-17T23:12:55.081Z,78.44
2017-12-17T23:15:22.544Z,77.15
2017-12-17T23:17:50.025Z,77.79
2017-12-17T23:20:17.488Z,77.66
2017-12-17T23:22:44.975Z,77.10
2017-12-17T23:25:12.445Z,76.43
2017-12-17T23:27:40.016Z,75.94
2017-12-17T23:30:07.485Z,76.92
2017-12-17T23:32:34.969Z,77.63
2017-12-17T23:35:02.461Z,76.97
2017-12-17T23:37:29.965Z,77.12
2017-12-17T23:39:57.439Z,77.21
2017-12-17T23:42:24.930Z,77.01
2017-12-17T23:44:52.393Z,77.22
2017-12-17T23:47:19.884Z,76.97
2017-12-17T23:49:47.351Z,77.35
2017-12-17T23:52:14.851Z,76.97
2017-12-17T23:54:42.325Z,76.62
2017-12-17T23:57:09.914Z,77.28
2017-12-17T23:59:37.380Z,76.71
